sensor_id;sensor_type;location;lat;lon;timestamp;P1;durP1;ratioP1;P2;durP2;ratioP2
84388;SDS011;74589;48.846;2.382;2024-01-10T00:01:33;19.83;;;17.70;;
84388;SDS011;74589;48.846;2.382;2024-01-10T00:03:59;19.70;;;17.60;;
84388;SDS011;74589;48.846;2.382;2024-01-10T00:06:25;20.67;;;17.77;;
84388;SDS011;74589;48.846;2.382;2024-01-10T00:08:51;20.02;;;17.23;;
84388;SDS011;74589;48.846;2.382;2024-01-10T00:11:16;19.08;;;17.05;;
84388;SDS011;74589;48.846;2.382;2024-01-10T00:13:42;19.50;;;17.50;;
84388;SDS011;74589;48.846;2.382;2024-01-10T00:16:08;18.65;;;16.65;;
84388;SDS011;74589;48.846;2.382;2024-01-10T00:18:36;19.48;;;17.38;;
84388;SDS011;74589;48.846;2.382;2024-01-10T00:21:02;19.75;;;17.58;;
84388;SDS011;74589;48.846;2.382;2024-01-10T00:23:27;20.95;;;17.83;;
84388;SDS011;74589;48.846;2.382;2024-01-10T00:25:53;18.77;;;16.80;;
84388;SDS011;74589;48.846;2.382;2024-01-10T00:28:19;19.55;;;17.55;;
84388;SDS011;74589;48.846;2.382;2024-01-10T00:30:45;20.17;;;18.00;;
84388;SDS011;74589;48.846;2.382;2024-01-10T00:33:13;20.67;;;17.27;;
84388;SDS011;74589;48.846;2.382;2024-01-10T00:35:39;19.70;;;17.60;;
84388;SDS011;74589;48.846;2.382;2024-01-10T00:38:04;19.27;;;17.08;;
84388;SDS011;74589;48.846;2.382;2024-01-10T00:40:30;20.30;;;17.05;;
84388;SDS011;74589;48.846;2.382;2024-01-10T00:42:56;19.27;;;17.27;;
84388;SDS011;74589;48.846;2.382;2024-01-10T00:45:21;20.23;;;17.17;;
84388;SDS011;74589;48.846;2.382;2024-01-10T00:47:50;23.05;;;19.85;;
84388;SDS011;74589;48.846;2.382;2024-01-10T00:50:16;20.13;;;17.60;;
84388;SDS011;74589;48.846;2.382;2024-01-10T00:52:43;20.35;;;18.15;;
84388;SDS011;74589;48.846;2.382;2024-01-10T00:55:10;19.20;;;16.67;;
84388;SDS011;74589;48.846;2.382;2024-01-10T00:57:35;20.30;;;17.50;;
84388;SDS011;74589;48.846;2.382;2024-01-10T01:00:04;20.48;;;18.15;;
84388;SDS011;74589;48.846;2.382;2024-01-10T01:02:31;28.77;;;22.80;;
84388;SDS011;74589;48.846;2.382;2024-01-10T01:04:56;21.35;;;18.23;;
84388;SDS011;74589;48.846;2.382;2024-01-10T01:07:22;19.52;;;17.10;;
84388;SDS011;74589;48.846;2.382;2024-01-10T01:09:48;18.65;;;16.45;;
84388;SDS011;74589;48.846;2.382;2024-01-10T01:12:13;19.27;;;17.27;;
84388;SDS011;74589;48.846;2.382;2024-01-10T01:14:39;20.88;;;18.17;;
84388;SDS011;74589;48.846;2.382;2024-01-10T01:17:05;20.38;;;17.58;;
84388;SDS011;74589;48.846;2.382;2024-01-10T01:19:30;20.42;;;18.23;;
84388;SDS011;74589;48.846;2.382;2024-01-10T01:21:56;19.92;;;17.63;;
84388;SDS011;74589;48.846;2.382;2024-01-10T01:24:22;20.15;;;17.35;;
84388;SDS011;74589;48.846;2.382;2024-01-10T01:26:47;20.77;;;18.05;;
84388;SDS011;74589;48.846;2.382;2024-01-10T01:29:13;22.30;;;18.60;;
84388;SDS011;74589;48.846;2.382;2024-01-10T01:31:38;20.77;;;18.55;;
84388;SDS011;74589;48.846;2.382;2024-01-10T01:34:04;21.23;;;18.75;;
84388;SDS011;74589;48.846;2.382;2024-01-10T01:36:30;20.10;;;18.00;;
84388;SDS011;74589;48.846;2.382;2024-01-10T01:38:55;20.73;;;18.52;;
84388;SDS011;74589;48.846;2.382;2024-01-10T01:41:21;19.80;;;17.35;;
84388;SDS011;74589;48.846;2.382;2024-01-10T01:43:47;21.00;;;18.33;;
84388;SDS011;74589;48.846;2.382;2024-01-10T01:46:12;19.95;;;17.85;;
84388;SDS011;74589;48.846;2.382;2024-01-10T01:48:38;20.58;;;18.38;;
84388;SDS011;74589;48.846;2.382;2024-01-10T01:51:05;20.27;;;17.45;;
84388;SDS011;74589;48.846;2.382;2024-01-10T01:53:33;20.10;;;17.67;;
84388;SDS011;74589;48.846;2.382;2024-01-10T01:56:00;20.52;;;17.67;;
84388;SDS011;74589;48.846;2.382;2024-01-10T01:58:30;19.60;;;17.50;;
84388;SDS011;74589;48.846;2.382;2024-01-10T02:00:56;19.85;;;17.20;;
84388;SDS011;74589;48.846;2.382;2024-01-10T02:03:22;19.70;;;17.30;;
84388;SDS011;74589;48.846;2.382;2024-01-10T02:05:48;19.25;;;17.17;;
84388;SDS011;74589;48.846;2.382;2024-01-10T02:08:15;21.10;;;17.63;;
84388;SDS011;74589;48.846;2.382;2024-01-10T02:10:40;20.02;;;17.83;;
84388;SDS011;74589;48.846;2.382;2024-01-10T02:13:06;19.55;;;16.92;;
84388;SDS011;74589;48.846;2.382;2024-01-10T02:15:34;19.55;;;17.30;;
84388;SDS011;74589;48.846;2.382;2024-01-10T02:18:00;19.67;;;17.52;;
84388;SDS011;74589;48.846;2.382;2024-01-10T02:20:26;20.08;;;17.02;;
84388;SDS011;74589;48.846;2.382;2024-01-10T02:22:52;19.33;;;17.27;;
84388;SDS011;74589;48.846;2.382;2024-01-10T02:25:18;21.40;;;17.63;;
84388;SDS011;74589;48.846;2.382;2024-01-10T02:27:44;19.42;;;17.33;;
84388;SDS011;74589;48.846;2.382;2024-01-10T02:30:09;18.70;;;16.70;;
84388;SDS011;74589;48.846;2.382;2024-01-10T02:32:36;18.83;;;16.77;;
84388;SDS011;74589;48.846;2.382;2024-01-10T02:35:02;19.67;;;17.17;;
84388;SDS011;74589;48.846;2.382;2024-01-10T02:37:28;20.27;;;16.95;;
84388;SDS011;74589;48.846;2.382;2024-01-10T02:39:54;18.05;;;15.77;;
84388;SDS011;74589;48.846;2.382;2024-01-10T02:42:19;19.45;;;16.92;;
84388;SDS011;74589;48.846;2.382;2024-01-10T02:44:45;20.58;;;17.33;;
84388;SDS011;74589;48.846;2.382;2024-01-10T02:47:11;20.50;;;18.30;;
84388;SDS011;74589;48.846;2.382;2024-01-10T02:49:37;20.13;;;18.02;;
84388;SDS011;74589;48.846;2.382;2024-01-10T02:52:03;18.98;;;16.15;;
84388;SDS011;74589;48.846;2.382;2024-01-10T02:54:29;18.65;;;16.65;;
84388;SDS011;74589;48.846;2.382;2024-01-10T02:56:55;19.40;;;17.30;;
84388;SDS011;74589;48.846;2.382;2024-01-10T02:59:21;19.05;;;17.00;;
84388;SDS011;74589;48.846;2.382;2024-01-10T03:01:46;19.95;;;17.85;;
84388;SDS011;74589;48.846;2.382;2024-01-10T03:04:12;19.83;;;17.58;;
84388;SDS011;74589;48.846;2.382;2024-01-10T03:06:38;19.55;;;16.65;;
84388;SDS011;74589;48.846;2.382;2024-01-10T03:09:03;21.83;;;17.48;;
84388;SDS011;74589;48.846;2.382;2024-01-10T03:11:29;20.67;;;18.48;;
84388;SDS011;74589;48.846;2.382;2024-01-10T03:14:02;19.25;;;17.08;;
84388;SDS011;74589;48.846;2.382;2024-01-10T03:16:32;20.40;;;17.77;;
84388;SDS011;74589;48.846;2.382;2024-01-10T03:18:58;17.83;;;15.93;;
84388;SDS011;74589;48.846;2.382;2024-01-10T03:21:23;19.27;;;17.02;;
84388;SDS011;74589;48.846;2.382;2024-01-10T03:23:54;18.77;;;16.70;;
84388;SDS011;74589;48.846;2.382;2024-01-10T03:26:21;20.23;;;17.55;;
84388;SDS011;74589;48.846;2.382;2024-01-10T03:28:47;18.35;;;16.40;;
84388;SDS011;74589;48.846;2.382;2024-01-10T03:31:13;19.70;;;16.83;;
84388;SDS011;74589;48.846;2.382;2024-01-10T03:33:39;20.10;;;17.90;;
84388;SDS011;74589;48.846;2.382;2024-01-10T03:36:06;19.75;;;17.38;;
84388;SDS011;74589;48.846;2.382;2024-01-10T03:38:32;17.77;;;15.60;;
84388;SDS011;74589;48.846;2.382;2024-01-10T03:40:57;19.20;;;17.20;;
84388;SDS011;74589;48.846;2.382;2024-01-10T03:43:23;19.50;;;17.23;;
84388;SDS011;74589;48.846;2.382;2024-01-10T03:45:49;19.15;;;16.58;;
84388;SDS011;74589;48.846;2.382;2024-01-10T03:48:14;18.88;;;16.88;;
84388;SDS011;74589;48.846;2.382;2024-01-10T03:50:40;19.27;;;17.27;;
84388;SDS011;74589;48.846;2.382;2024-01-10T03:53:05;18.02;;;16.13;;
84388;SDS011;74589;48.846;2.382;2024-01-10T03:55:31;18.52;;;16.60;;
84388;SDS011;74589;48.846;2.382;2024-01-10T03:57:57;18.30;;;16.30;;
84388;SDS011;74589;48.846;2.382;2024-01-10T04:00:22;19.20;;;16.40;;
84388;SDS011;74589;48.846;2.382;2024-01-10T04:02:50;19.00;;;15.77;;
84388;SDS011;74589;48.846;2.382;2024-01-10T04:05:15;19.00;;;16.35;;
84388;SDS011;74589;48.846;2.382;2024-01-10T04:07:41;18.42;;;15.77;;
84388;SDS011;74589;48.846;2.382;2024-01-10T04:10:08;18.80;;;16.30;;
84388;SDS011;74589;48.846;2.382;2024-01-10T04:12:38;18.13;;;15.85;;
84388;SDS011;74589;48.846;2.382;2024-01-10T04:15:11;18.05;;;15.63;;
84388;SDS011;74589;48.846;2.382;2024-01-10T04:17:37;19.00;;;16.58;;
84388;SDS011;74589;48.846;2.382;2024-01-10T04:20:03;18.15;;;15.57;;
84388;SDS011;74589;48.846;2.382;2024-01-10T04:22:29;16.48;;;14.63;;
84388;SDS011;74589;48.846;2.382;2024-01-10T04:24:57;18.52;;;16.58;;
84388;SDS011;74589;48.846;2.382;2024-01-10T04:27:23;18.50;;;15.75;;
84388;SDS011;74589;48.846;2.382;2024-01-10T04:29:49;18.38;;;15.77;;
84388;SDS011;74589;48.846;2.382;2024-01-10T04:32:15;17.50;;;15.68;;
84388;SDS011;74589;48.846;2.382;2024-01-10T04:34:40;18.25;;;16.45;;
84388;SDS011;74589;48.846;2.382;2024-01-10T04:37:06;18.15;;;16.25;;
84388;SDS011;74589;48.846;2.382;2024-01-10T04:39:32;16.98;;;15.05;;
84388;SDS011;74589;48.846;2.382;2024-01-10T04:42:03;19.55;;;16.80;;
84388;SDS011;74589;48.846;2.382;2024-01-10T04:44:29;17.75;;;15.85;;
84388;SDS011;74589;48.846;2.382;2024-01-10T04:46:55;17.95;;;15.88;;
84388;SDS011;74589;48.846;2.382;2024-01-10T04:49:21;17.83;;;15.88;;
84388;SDS011;74589;48.846;2.382;2024-01-10T04:51:46;17.75;;;15.70;;
84388;SDS011;74589;48.846;2.382;2024-01-10T04:54:12;17.73;;;14.95;;
84388;SDS011;74589;48.846;2.382;2024-01-10T04:56:38;18.25;;;16.23;;
84388;SDS011;74589;48.846;2.382;2024-01-10T04:59:04;18.55;;;16.60;;
84388;SDS011;74589;48.846;2.382;2024-01-10T05:01:30;16.95;;;15.25;;
84388;SDS011;74589;48.846;2.382;2024-01-10T05:03:56;18.00;;;16.10;;
84388;SDS011;74589;48.846;2.382;2024-01-10T05:06:22;17.65;;;15.85;;
84388;SDS011;74589;48.846;2.382;2024-01-10T05:08:48;18.17;;;16.10;;
84388;SDS011;74589;48.846;2.382;2024-01-10T05:11:14;17.77;;;15.90;;
84388;SDS011;74589;48.846;2.382;2024-01-10T05:13:40;18.30;;;16.30;;
84388;SDS011;74589;48.846;2.382;2024-01-10T05:16:07;19.00;;;16.35;;
84388;SDS011;74589;48.846;2.382;2024-01-10T05:18:33;19.73;;;16.35;;
84388;SDS011;74589;48.846;2.382;2024-01-10T05:20:59;18.90;;;15.45;;
84388;SDS011;74589;48.846;2.382;2024-01-10T05:23:25;17.27;;;15.48;;
84388;SDS011;74589;48.846;2.382;2024-01-10T05:25:51;19.50;;;16.27;;
84388;SDS011;74589;48.846;2.382;2024-01-10T05:28:16;17.33;;;15.43;;
84388;SDS011;74589;48.846;2.382;2024-01-10T05:30:42;18.58;;;15.95;;
84388;SDS011;74589;48.846;2.382;2024-01-10T05:33:09;17.33;;;15.45;;
84388;SDS011;74589;48.846;2.382;2024-01-10T05:35:36;19.50;;;16.33;;
84388;SDS011;74589;48.846;2.382;2024-01-10T05:38:03;19.80;;;16.35;;
84388;SDS011;74589;48.846;2.382;2024-01-10T05:40:29;19.25;;;16.63;;
84388;SDS011;74589;48.846;2.382;2024-01-10T05:42:57;18.10;;;16.20;;
84388;SDS011;74589;48.846;2.382;2024-01-10T05:45:26;19.13;;;16.77;;
84388;SDS011;74589;48.846;2.382;2024-01-10T05:47:53;18.15;;;16.25;;
84388;SDS011;74589;48.846;2.382;2024-01-10T05:50:19;18.90;;;16.35;;
84388;SDS011;74589;48.846;2.382;2024-01-10T05:52:45;18.70;;;16.52;;
84388;SDS011;74589;48.846;2.382;2024-01-10T05:55:11;18.52;;;15.77;;
84388;SDS011;74589;48.846;2.382;2024-01-10T05:57:37;19.38;;;16.20;;
84388;SDS011;74589;48.846;2.382;2024-01-10T06:00:03;18.40;;;16.45;;
84388;SDS011;74589;48.846;2.382;2024-01-10T06:02:34;19.25;;;16.95;;
84388;SDS011;74589;48.846;2.382;2024-01-10T06:05:06;18.10;;;16.10;;
84388;SDS011;74589;48.846;2.382;2024-01-10T06:07:36;18.50;;;16.50;;
84388;SDS011;74589;48.846;2.382;2024-01-10T06:10:02;17.38;;;15.32;;
84388;SDS011;74589;48.846;2.382;2024-01-10T06:12:29;18.52;;;16.35;;
84388;SDS011;74589;48.846;2.382;2024-01-10T06:14:55;19.50;;;16.13;;
84388;SDS011;74589;48.846;2.382;2024-01-10T06:17:21;19.42;;;15.10;;
84388;SDS011;74589;48.846;2.382;2024-01-10T06:19:47;19.77;;;16.23;;
84388;SDS011;74589;48.846;2.382;2024-01-10T06:22:12;17.77;;;15.88;;
84388;SDS011;74589;48.846;2.382;2024-01-10T06:24:38;18.48;;;15.48;;
84388;SDS011;74589;48.846;2.382;2024-01-10T06:27:04;16.92;;;15.13;;
84388;SDS011;74589;48.846;2.382;2024-01-10T06:29:31;17.83;;;15.85;;
84388;SDS011;74589;48.846;2.382;2024-01-10T06:31:56;16.25;;;14.50;;
84388;SDS011;74589;48.846;2.382;2024-01-10T06:34:23;16.25;;;14.57;;
84388;SDS011;74589;48.846;2.382;2024-01-10T06:36:49;16.02;;;14.32;;
84388;SDS011;74589;48.846;2.382;2024-01-10T06:39:14;16.10;;;13.77;;
84388;SDS011;74589;48.846;2.382;2024-01-10T06:41:41;16.08;;;14.02;;
84388;SDS011;74589;48.846;2.382;2024-01-10T06:44:07;16.92;;;14.38;;
84388;SDS011;74589;48.846;2.382;2024-01-10T06:46:33;16.50;;;13.65;;
84388;SDS011;74589;48.846;2.382;2024-01-10T06:48:59;15.65;;;13.88;;
84388;SDS011;74589;48.846;2.382;2024-01-10T06:51:25;16.38;;;14.18;;
84388;SDS011;74589;48.846;2.382;2024-01-10T06:53:51;17.08;;;13.27;;
84388;SDS011;74589;48.846;2.382;2024-01-10T06:56:17;16.40;;;14.18;;
84388;SDS011;74589;48.846;2.382;2024-01-10T06:58:43;16.40;;;13.32;;
84388;SDS011;74589;48.846;2.382;2024-01-10T07:01:12;16.48;;;13.38;;
84388;SDS011;74589;48.846;2.382;2024-01-10T07:03:41;15.20;;;12.93;;
84388;SDS011;74589;48.846;2.382;2024-01-10T07:06:07;15.07;;;13.00;;
84388;SDS011;74589;48.846;2.382;2024-01-10T07:08:33;15.40;;;12.52;;
84388;SDS011;74589;48.846;2.382;2024-01-10T07:10:58;15.45;;;12.90;;
84388;SDS011;74589;48.846;2.382;2024-01-10T07:13:24;15.88;;;13.50;;
84388;SDS011;74589;48.846;2.382;2024-01-10T07:15:50;15.85;;;13.13;;
84388;SDS011;74589;48.846;2.382;2024-01-10T07:18:18;15.25;;;12.52;;
84388;SDS011;74589;48.846;2.382;2024-01-10T07:20:44;14.60;;;12.05;;
84388;SDS011;74589;48.846;2.382;2024-01-10T07:23:10;13.75;;;11.93;;
84388;SDS011;74589;48.846;2.382;2024-01-10T07:25:36;14.07;;;12.18;;
84388;SDS011;74589;48.846;2.382;2024-01-10T07:28:02;14.10;;;12.50;;
84388;SDS011;74589;48.846;2.382;2024-01-10T07:30:28;16.95;;;13.20;;
84388;SDS011;74589;48.846;2.382;2024-01-10T07:32:58;15.60;;;13.40;;
84388;SDS011;74589;48.846;2.382;2024-01-10T07:35:24;15.93;;;13.20;;
84388;SDS011;74589;48.846;2.382;2024-01-10T07:37:50;15.77;;;13.98;;
84388;SDS011;74589;48.846;2.382;2024-01-10T07:40:16;14.25;;;12.63;;
84388;SDS011;74589;48.846;2.382;2024-01-10T07:42:42;14.05;;;12.10;;
84388;SDS011;74589;48.846;2.382;2024-01-10T07:45:08;14.23;;;11.88;;
84388;SDS011;74589;48.846;2.382;2024-01-10T07:47:34;14.88;;;13.32;;
84388;SDS011;74589;48.846;2.382;2024-01-10T07:50:11;15.98;;;12.98;;
84388;SDS011;74589;48.846;2.382;2024-01-10T07:52:40;12.57;;;11.25;;
84388;SDS011;74589;48.846;2.382;2024-01-10T07:55:07;16.58;;;12.77;;
84388;SDS011;74589;48.846;2.382;2024-01-10T07:57:33;15.18;;;12.85;;
84388;SDS011;74589;48.846;2.382;2024-01-10T08:00:00;15.15;;;12.40;;
84388;SDS011;74589;48.846;2.382;2024-01-10T08:02:26;15.20;;;12.57;;
84388;SDS011;74589;48.846;2.382;2024-01-10T08:04:52;15.52;;;12.35;;
84388;SDS011;74589;48.846;2.382;2024-01-10T08:07:17;15.57;;;12.23;;
84388;SDS011;74589;48.846;2.382;2024-01-10T08:09:44;12.95;;;11.48;;
84388;SDS011;74589;48.846;2.382;2024-01-10T08:12:10;14.60;;;12.45;;
84388;SDS011;74589;48.846;2.382;2024-01-10T08:14:37;16.58;;;11.85;;
84388;SDS011;74589;48.846;2.382;2024-01-10T08:17:02;14.35;;;11.98;;
84388;SDS011;74589;48.846;2.382;2024-01-10T08:19:29;13.15;;;11.75;;
84388;SDS011;74589;48.846;2.382;2024-01-10T08:21:54;14.05;;;11.95;;
84388;SDS011;74589;48.846;2.382;2024-01-10T08:24:20;15.07;;;12.65;;
84388;SDS011;74589;48.846;2.382;2024-01-10T08:26:46;14.10;;;11.65;;
84388;SDS011;74589;48.846;2.382;2024-01-10T08:29:17;14.65;;;11.82;;
84388;SDS011;74589;48.846;2.382;2024-01-10T08:31:44;15.88;;;12.63;;
84388;SDS011;74589;48.846;2.382;2024-01-10T08:34:10;15.48;;;12.65;;
84388;SDS011;74589;48.846;2.382;2024-01-10T08:36:36;15.25;;;12.90;;
84388;SDS011;74589;48.846;2.382;2024-01-10T08:39:02;13.52;;;12.05;;
84388;SDS011;74589;48.846;2.382;2024-01-10T08:41:29;15.73;;;12.68;;
84388;SDS011;74589;48.846;2.382;2024-01-10T08:43:55;17.17;;;13.32;;
84388;SDS011;74589;48.846;2.382;2024-01-10T08:46:21;14.65;;;12.57;;
84388;SDS011;74589;48.846;2.382;2024-01-10T08:48:47;15.05;;;12.27;;
84388;SDS011;74589;48.846;2.382;2024-01-10T08:51:13;14.90;;;13.15;;
84388;SDS011;74589;48.846;2.382;2024-01-10T08:53:41;15.05;;;12.90;;
84388;SDS011;74589;48.846;2.382;2024-01-10T08:56:10;15.15;;;12.77;;
84388;SDS011;74589;48.846;2.382;2024-01-10T08:58:35;19.15;;;15.73;;
84388;SDS011;74589;48.846;2.382;2024-01-10T09:01:02;16.13;;;12.60;;
84388;SDS011;74589;48.846;2.382;2024-01-10T09:03:29;21.60;;;16.02;;
84388;SDS011;74589;48.846;2.382;2024-01-10T09:05:55;16.25;;;13.65;;
84388;SDS011;74589;48.846;2.382;2024-01-10T09:08:20;16.95;;;13.55;;
84388;SDS011;74589;48.846;2.382;2024-01-10T09:10:47;16.10;;;13.10;;
84388;SDS011;74589;48.846;2.382;2024-01-10T09:13:14;14.77;;;13.13;;
84388;SDS011;74589;48.846;2.382;2024-01-10T09:15:40;14.13;;;12.63;;
84388;SDS011;74589;48.846;2.382;2024-01-10T09:18:06;14.02;;;12.43;;
84388;SDS011;74589;48.846;2.382;2024-01-10T09:20:31;15.02;;;13.05;;
84388;SDS011;74589;48.846;2.382;2024-01-10T09:22:57;15.27;;;12.68;;
84388;SDS011;74589;48.846;2.382;2024-01-10T09:25:25;15.18;;;12.30;;
84388;SDS011;74589;48.846;2.382;2024-01-10T09:27:51;15.57;;;12.80;;
84388;SDS011;74589;48.846;2.382;2024-01-10T09:30:16;15.27;;;12.55;;
84388;SDS011;74589;48.846;2.382;2024-01-10T09:32:43;14.93;;;11.90;;
84388;SDS011;74589;48.846;2.382;2024-01-10T09:35:09;13.57;;;11.98;;
84388;SDS011;74589;48.846;2.382;2024-01-10T09:37:35;15.52;;;12.52;;
84388;SDS011;74589;48.846;2.382;2024-01-10T09:40:01;15.32;;;11.80;;
84388;SDS011;74589;48.846;2.382;2024-01-10T09:42:27;15.20;;;12.32;;
84388;SDS011;74589;48.846;2.382;2024-01-10T09:44:56;15.35;;;12.45;;
84388;SDS011;74589;48.846;2.382;2024-01-10T09:47:22;15.73;;;11.85;;
84388;SDS011;74589;48.846;2.382;2024-01-10T09:49:48;14.02;;;11.88;;
84388;SDS011;74589;48.846;2.382;2024-01-10T09:52:16;14.10;;;11.43;;
84388;SDS011;74589;48.846;2.382;2024-01-10T09:54:49;15.32;;;11.43;;
84388;SDS011;74589;48.846;2.382;2024-01-10T09:57:18;14.18;;;11.55;;
84388;SDS011;74589;48.846;2.382;2024-01-10T09:59:46;13.18;;;10.75;;
84388;SDS011;74589;48.846;2.382;2024-01-10T10:02:13;12.77;;;11.20;;
84388;SDS011;74589;48.846;2.382;2024-01-10T10:04:41;13.13;;;10.77;;
84388;SDS011;74589;48.846;2.382;2024-01-10T10:07:24;12.70;;;10.57;;
84388;SDS011;74589;48.846;2.382;2024-01-10T10:09:49;13.43;;;10.85;;
84388;SDS011;74589;48.846;2.382;2024-01-10T10:12:18;14.57;;;10.70;;
84388;SDS011;74589;48.846;2.382;2024-01-10T10:14:44;11.75;;;9.90;;
84388;SDS011;74589;48.846;2.382;2024-01-10T10:17:16;11.90;;;9.88;;
84388;SDS011;74589;48.846;2.382;2024-01-10T10:19:42;13.18;;;10.75;;
84388;SDS011;74589;48.846;2.382;2024-01-10T10:22:09;12.18;;;10.52;;
84388;SDS011;74589;48.846;2.382;2024-01-10T10:24:36;15.35;;;10.55;;
84388;SDS011;74589;48.846;2.382;2024-01-10T10:27:11;12.88;;;11.00;;
84388;SDS011;74589;48.846;2.382;2024-01-10T10:29:40;12.93;;;11.13;;
84388;SDS011;74589;48.846;2.382;2024-01-10T10:32:05;13.30;;;10.77;;
84388;SDS011;74589;48.846;2.382;2024-01-10T10:34:33;12.93;;;11.15;;
84388;SDS011;74589;48.846;2.382;2024-01-10T10:36:59;11.55;;;9.13;;
84388;SDS011;74589;48.846;2.382;2024-01-10T10:39:25;11.88;;;10.30;;
84388;SDS011;74589;48.846;2.382;2024-01-10T10:41:51;15.50;;;11.10;;
84388;SDS011;74589;48.846;2.382;2024-01-10T10:44:19;14.10;;;10.77;;
84388;SDS011;74589;48.846;2.382;2024-01-10T10:46:49;12.95;;;10.60;;
84388;SDS011;74589;48.846;2.382;2024-01-10T10:49:19;12.13;;;9.95;;
84388;SDS011;74589;48.846;2.382;2024-01-10T10:51:55;14.30;;;10.80;;
84388;SDS011;74589;48.846;2.382;2024-01-10T10:54:28;13.98;;;11.02;;
84388;SDS011;74589;48.846;2.382;2024-01-10T10:56:57;13.35;;;10.88;;
84388;SDS011;74589;48.846;2.382;2024-01-10T10:59:25;14.88;;;11.00;;
84388;SDS011;74589;48.846;2.382;2024-01-10T11:01:51;13.80;;;11.00;;
84388;SDS011;74589;48.846;2.382;2024-01-10T11:04:19;13.02;;;10.35;;
84388;SDS011;74589;48.846;2.382;2024-01-10T11:06:46;15.68;;;11.63;;
84388;SDS011;74589;48.846;2.382;2024-01-10T11:09:11;13.82;;;10.88;;
84388;SDS011;74589;48.846;2.382;2024-01-10T11:16:48;14.63;;;12.02;;
84388;SDS011;74589;48.846;2.382;2024-01-10T11:24:49;14.60;;;11.32;;
84388;SDS011;74589;48.846;2.382;2024-01-10T11:27:15;13.32;;;11.20;;
84388;SDS011;74589;48.846;2.382;2024-01-10T11:29:41;18.98;;;12.30;;
84388;SDS011;74589;48.846;2.382;2024-01-10T11:32:17;14.68;;;11.90;;
84388;SDS011;74589;48.846;2.382;2024-01-10T11:34:59;13.93;;;11.32;;
84388;SDS011;74589;48.846;2.382;2024-01-10T11:37:43;15.55;;;11.00;;
84388;SDS011;74589;48.846;2.382;2024-01-10T11:40:14;13.23;;;11.20;;
84388;SDS011;74589;48.846;2.382;2024-01-10T11:42:46;13.35;;;11.95;;
84388;SDS011;74589;48.846;2.382;2024-01-10T11:48:00;14.10;;;11.55;;
84388;SDS011;74589;48.846;2.382;2024-01-10T11:50:26;15.20;;;10.27;;
84388;SDS011;74589;48.846;2.382;2024-01-10T11:52:53;13.65;;;11.40;;
84388;SDS011;74589;48.846;2.382;2024-01-10T11:56:02;14.18;;;11.23;;
84388;SDS011;74589;48.846;2.382;2024-01-10T11:58:16;14.00;;;11.27;;
84388;SDS011;74589;48.846;2.382;2024-01-10T12:00:42;12.95;;;10.77;;
84388;SDS011;74589;48.846;2.382;2024-01-10T12:03:08;13.02;;;10.80;;
84388;SDS011;74589;48.846;2.382;2024-01-10T12:05:38;15.15;;;10.73;;
84388;SDS011;74589;48.846;2.382;2024-01-10T12:08:06;12.27;;;10.40;;
84388;SDS011;74589;48.846;2.382;2024-01-10T12:10:32;14.68;;;11.10;;
84388;SDS011;74589;48.846;2.382;2024-01-10T12:13:01;14.15;;;11.52;;
84388;SDS011;74589;48.846;2.382;2024-01-10T12:15:28;14.98;;;10.23;;
84388;SDS011;74589;48.846;2.382;2024-01-10T12:17:54;13.50;;;11.52;;
84388;SDS011;74589;48.846;2.382;2024-01-10T12:20:20;14.73;;;12.27;;
84388;SDS011;74589;48.846;2.382;2024-01-10T12:22:46;13.77;;;11.07;;
84388;SDS011;74589;48.846;2.382;2024-01-10T12:25:12;12.25;;;10.90;;
84388;SDS011;74589;48.846;2.382;2024-01-10T12:27:38;13.48;;;11.43;;
84388;SDS011;74589;48.846;2.382;2024-01-10T12:30:04;13.38;;;10.95;;
84388;SDS011;74589;48.846;2.382;2024-01-10T12:32:31;12.93;;;10.60;;
84388;SDS011;74589;48.846;2.382;2024-01-10T12:35:03;14.20;;;11.73;;
84388;SDS011;74589;48.846;2.382;2024-01-10T12:37:30;15.60;;;11.95;;
84388;SDS011;74589;48.846;2.382;2024-01-10T12:39:56;14.65;;;12.20;;
84388;SDS011;74589;48.846;2.382;2024-01-10T12:42:22;13.18;;;11.30;;
84388;SDS011;74589;48.846;2.382;2024-01-10T12:44:48;13.60;;;11.25;;
84388;SDS011;74589;48.846;2.382;2024-01-10T12:47:20;14.02;;;11.80;;
84388;SDS011;74589;48.846;2.382;2024-01-10T12:49:47;15.13;;;12.43;;
84388;SDS011;74589;48.846;2.382;2024-01-10T12:52:13;15.88;;;12.82;;
84388;SDS011;74589;48.846;2.382;2024-01-10T12:54:39;15.05;;;11.52;;
84388;SDS011;74589;48.846;2.382;2024-01-10T12:57:05;15.00;;;11.90;;
84388;SDS011;74589;48.846;2.382;2024-01-10T12:59:34;16.13;;;12.43;;
84388;SDS011;74589;48.846;2.382;2024-01-10T13:02:00;14.07;;;11.38;;
84388;SDS011;74589;48.846;2.382;2024-01-10T13:04:26;15.25;;;11.90;;
84388;SDS011;74589;48.846;2.382;2024-01-10T13:06:52;14.20;;;11.32;;
84388;SDS011;74589;48.846;2.382;2024-01-10T13:09:17;16.85;;;12.80;;
84388;SDS011;74589;48.846;2.382;2024-01-10T13:11:43;15.05;;;12.05;;
84388;SDS011;74589;48.846;2.382;2024-01-10T13:14:10;15.05;;;12.15;;
84388;SDS011;74589;48.846;2.382;2024-01-10T13:16:37;16.05;;;12.05;;
84388;SDS011;74589;48.846;2.382;2024-01-10T13:19:03;14.98;;;12.40;;
84388;SDS011;74589;48.846;2.382;2024-01-10T13:21:28;15.45;;;12.35;;
84388;SDS011;74589;48.846;2.382;2024-01-10T13:23:54;15.35;;;13.20;;
84388;SDS011;74589;48.846;2.382;2024-01-10T13:26:20;14.63;;;12.80;;
84388;SDS011;74589;48.846;2.382;2024-01-10T13:28:45;14.20;;;11.18;;
84388;SDS011;74589;48.846;2.382;2024-01-10T13:31:11;18.05;;;12.75;;
84388;SDS011;74589;48.846;2.382;2024-01-10T13:33:37;17.15;;;12.90;;
84388;SDS011;74589;48.846;2.382;2024-01-10T13:36:03;14.77;;;11.95;;
84388;SDS011;74589;48.846;2.382;2024-01-10T13:38:29;16.25;;;13.63;;
84388;SDS011;74589;48.846;2.382;2024-01-10T13:40:55;16.45;;;12.23;;
84388;SDS011;74589;48.846;2.382;2024-01-10T13:43:21;16.13;;;13.32;;
84388;SDS011;74589;48.846;2.382;2024-01-10T13:45:47;16.65;;;13.00;;
84388;SDS011;74589;48.846;2.382;2024-01-10T13:48:13;16.55;;;12.52;;
84388;SDS011;74589;48.846;2.382;2024-01-10T13:50:39;17.33;;;12.80;;
84388;SDS011;74589;48.846;2.382;2024-01-10T13:53:05;16.80;;;12.93;;
84388;SDS011;74589;48.846;2.382;2024-01-10T13:55:31;16.42;;;12.13;;
84388;SDS011;74589;48.846;2.382;2024-01-10T13:57:57;15.43;;;12.55;;
84388;SDS011;74589;48.846;2.382;2024-01-10T14:00:23;14.57;;;12.02;;
84388;SDS011;74589;48.846;2.382;2024-01-10T14:02:48;14.77;;;11.73;;
84388;SDS011;74589;48.846;2.382;2024-01-10T14:05:14;16.75;;;11.70;;
84388;SDS011;74589;48.846;2.382;2024-01-10T14:07:40;16.00;;;12.02;;
84388;SDS011;74589;48.846;2.382;2024-01-10T14:10:09;15.45;;;12.20;;
84388;SDS011;74589;48.846;2.382;2024-01-10T14:12:36;14.70;;;12.13;;
84388;SDS011;74589;48.846;2.382;2024-01-10T14:15:02;16.10;;;13.02;;
84388;SDS011;74589;48.846;2.382;2024-01-10T14:17:29;15.32;;;13.20;;
84388;SDS011;74589;48.846;2.382;2024-01-10T14:19:55;13.98;;;12.32;;
84388;SDS011;74589;48.846;2.382;2024-01-10T14:22:20;15.25;;;13.20;;
84388;SDS011;74589;48.846;2.382;2024-01-10T14:24:48;16.52;;;12.82;;
84388;SDS011;74589;48.846;2.382;2024-01-10T14:27:15;17.92;;;13.63;;
84388;SDS011;74589;48.846;2.382;2024-01-10T14:29:41;16.77;;;12.95;;
84388;SDS011;74589;48.846;2.382;2024-01-10T14:32:07;17.85;;;12.82;;